Terminal Aerodrome Forecast
Issued by NWS

Home | Current Version | Previous Version | Graphics & Text | Print | Product List | Glossary On
Versions: 1 2 3 4 5 6 7 8 9 10 11 12 13 14 15 16
000
FTUS43 KTOP 212324
TAFMHK
TAF
KMHK 212324Z 2200/2224 20013G24KT P6SM SCT250
     FM220100 19010KT P6SM SCT250
     FM220300 20006KT P6SM BKN250 WS011/20040KT
     FM221100 19007KT P6SM VCTS BKN120CB
     FM221600 19012G20KT P6SM SCT250=

USA.gov is the U.S. government's official web portal to all federal, state and local government web resources and services.